Terminal Aerodrome Forecast
Issued by NWS Rapid City, SD

Home | Current Version | Previous Version | Text Only | Print | Product List | Glossary Off
Versions: 1 2 3 4 5 6 7 8 9 10 11 12 13 14 15 16 17 18 19

286
FTUS43 KUNR 261122
TAFRAP
TAF
KRAP 261122Z 2612/2712 28007KT P6SM FEW070
     FM261800 23009KT P6SM FEW200
     FM262200 19009KT P6SM BKN150=

USA.gov is the U.S. government's official web portal to all federal, state and local government web resources and services.